Time;durP1;ratioP1;P1;durP2;ratioP2;P2;SDS_P1;SDS_P2;PMS_P1;PMS_P2;Temp;Humidity;BMP_temperature;BMP_pressure;BME280_temperature;BME280_humidity;BME280_pressure;Samples;Min_cycle;Max_cycle;Signal;HPM_P1;HPM_P2
2024/02/10 00:00:31;;;;;;;0.90;0.90;;;9.10;99.90;;;;;;5093819;28;20176;-62
2024/02/10 00:02:57;;;;;;;3.90;2.40;;;9.10;99.90;;;;;;5093935;28;20563;-62
2024/02/10 00:05:23;;;;;;;1.40;1.20;;;9.00;99.90;;;;;;5093684;28;20437;-61
2024/02/10 00:07:52;;;;;;;1.47;1.37;;;9.00;99.90;;;;;;5093240;28;20200;-61
2024/02/10 00:10:36;;;;;;;1.00;0.90;;;9.10;99.90;;;;;;5093870;28;20173;-62
2024/02/10 00:13:01;;;;;;;1.00;0.77;;;9.30;99.90;;;;;;5093640;28;20208;-62
2024/02/10 00:15:27;;;;;;;0.90;0.90;;;9.30;99.90;;;;;;5093576;28;20180;-61
2024/02/10 00:17:53;;;;;;;1.02;0.70;;;9.30;99.90;;;;;;5093119;28;20204;-62
2024/02/10 00:20:20;;;;;;;0.80;0.80;;;9.30;99.90;;;;;;5093269;28;20657;-61
2024/02/10 00:22:49;;;;;;;1.02;1.00;;;9.30;99.90;;;;;;5093138;28;20571;-62
2024/02/10 00:25:15;;;;;;;2.55;0.75;;;9.20;99.90;;;;;;5092992;28;20188;-61
2024/02/10 00:27:46;;;;;;;2.10;0.80;;;9.20;99.90;;;;;;5092910;28;20270;-61
2024/02/10 00:30:16;;;;;;;1.17;1.10;;;9.20;99.90;;;;;;5093342;28;20177;-61
2024/02/10 00:32:43;;;;;;;0.82;0.82;;;9.10;99.90;;;;;;5084228;28;20716;-62
2024/02/10 00:35:08;;;;;;;1.27;1.10;;;8.90;99.90;;;;;;5086816;28;20192;-61
2024/02/10 00:37:34;;;;;;;2.80;1.87;;;8.90;99.90;;;;;;5086214;28;20200;-62
2024/02/10 00:40:04;;;;;;;1.00;1.00;;;8.90;99.90;;;;;;5093125;28;20169;-62
2024/02/10 00:42:31;;;;;;;1.50;1.40;;;8.90;99.90;;;;;;5092940;28;20173;-62
2024/02/10 00:44:59;;;;;;;1.73;0.90;;;8.90;99.90;;;;;;5092897;28;20677;-62
2024/02/10 00:47:25;;;;;;;0.60;0.60;;;8.90;99.90;;;;;;5092471;28;20215;-62
2024/02/10 00:49:52;;;;;;;1.00;1.00;;;9.00;99.90;;;;;;5092908;28;20650;-62
2024/02/10 00:52:18;;;;;;;0.90;0.55;;;9.10;99.90;;;;;;5092941;28;20180;-62
2024/02/10 00:54:48;;;;;;;2.50;1.38;;;9.10;99.90;;;;;;5092899;28;20238;-62
2024/02/10 00:57:14;;;;;;;1.50;0.90;;;9.10;99.90;;;;;;5092341;28;20279;-62
2024/02/10 00:59:44;;;;;;;1.33;0.90;;;9.20;99.90;;;;;;5092601;28;20192;-62
2024/02/10 01:02:20;;;;;;;0.75;0.75;;;9.20;99.90;;;;;;5092612;28;20701;-62
2024/02/10 01:04:47;;;;;;;0.70;0.68;;;9.20;99.90;;;;;;5092807;28;20255;-61
2024/02/10 01:07:16;;;;;;;1.58;1.02;;;9.00;99.90;;;;;;5092277;28;20222;-62
2024/02/10 01:09:48;;;;;;;0.90;0.90;;;9.00;99.90;;;;;;5092424;28;20678;-62
2024/02/10 01:12:15;;;;;;;0.65;0.65;;;9.00;99.90;;;;;;5092418;28;20169;-62
2024/02/10 01:14:40;;;;;;;0.65;0.65;;;9.00;99.90;;;;;;5092343;28;20176;-62
2024/02/10 01:17:10;;;;;;;1.00;0.90;;;9.00;99.90;;;;;;5092033;28;20264;-61
2024/02/10 01:19:49;;;;;;;0.80;0.80;;;8.90;99.90;;;;;;5092472;28;20675;-62
2024/02/10 01:22:17;;;;;;;0.70;0.70;;;8.90;99.90;;;;;;5092224;28;20172;-62
2024/02/10 01:24:45;;;;;;;0.60;0.60;;;9.00;99.90;;;;;;5092081;28;20199;-62
2024/02/10 01:27:12;;;;;;;0.52;0.52;;;9.10;99.90;;;;;;5091925;28;20177;-62
2024/02/10 01:29:38;;;;;;;0.60;0.60;;;9.20;99.90;;;;;;5092240;28;20598;-62
2024/02/10 01:32:05;;;;;;;1.45;0.70;;;9.20;99.90;;;;;;5087808;28;20479;-62
2024/02/10 01:34:32;;;;;;;0.40;0.40;;;9.20;99.90;;;;;;5078628;28;20180;-62
2024/02/10 01:36:58;;;;;;;0.50;0.50;;;9.10;99.90;;;;;;5079508;28;20203;-61
2024/02/10 01:39:24;;;;;;;0.50;0.50;;;9.00;99.90;;;;;;5079791;28;20219;-62
2024/02/10 01:41:52;;;;;;;0.73;0.60;;;8.90;99.90;;;;;;5087665;28;20759;-62
2024/02/10 01:44:18;;;;;;;0.70;0.70;;;8.90;99.90;;;;;;5092137;28;20431;-62
2024/02/10 01:46:44;;;;;;;0.55;0.50;;;8.90;99.90;;;;;;5091576;28;20176;-62
2024/02/10 01:49:10;;;;;;;0.50;0.50;;;8.90;99.90;;;;;;5091804;28;20536;-62
2024/02/10 01:51:36;;;;;;;0.70;0.70;;;8.90;99.90;;;;;;5091802;28;20422;-61
2024/02/10 01:54:03;;;;;;;2.35;0.95;;;8.80;99.90;;;;;;5091688;28;20165;-62
2024/02/10 01:56:30;;;;;;;0.60;0.60;;;8.80;99.90;;;;;;5091626;28;20180;-62
2024/02/10 01:58:59;;;;;;;0.40;0.40;;;8.80;99.90;;;;;;5091848;28;20193;-62
2024/02/10 02:01:25;;;;;;;0.50;0.50;;;8.80;99.90;;;;;;5091837;28;20230;-62
2024/02/10 02:03:51;;;;;;;1.17;0.67;;;8.90;99.90;;;;;;5091730;28;20245;-62
2024/02/10 02:06:18;;;;;;;1.03;0.60;;;8.90;99.90;;;;;;5091461;28;20185;-62
2024/02/10 02:08:47;;;;;;;0.40;0.40;;;8.90;99.90;;;;;;5091975;28;20975;-62
2024/02/10 02:11:13;;;;;;;0.70;0.50;;;8.90;99.90;;;;;;5091816;28;20251;-62
2024/02/10 02:13:39;;;;;;;0.50;0.50;;;8.90;99.90;;;;;;5091678;28;20702;-62
2024/02/10 02:16:05;;;;;;;0.40;0.40;;;8.80;99.90;;;;;;5091553;28;20453;-62
2024/02/10 02:18:31;;;;;;;0.53;0.53;;;8.80;99.90;;;;;;5091197;28;20232;-62
2024/02/10 02:20:58;;;;;;;0.60;0.60;;;8.60;99.90;;;;;;5091500;28;20456;-61
2024/02/10 02:23:24;;;;;;;0.40;0.40;;;8.60;99.90;;;;;;5091618;28;20183;-62
2024/02/10 02:25:50;;;;;;;0.40;0.40;;;8.50;99.90;;;;;;5091480;28;20256;-62
2024/02/10 02:28:21;;;;;;;0.43;0.43;;;8.50;99.90;;;;;;5091312;28;20204;-62
2024/02/10 02:30:47;;;;;;;0.68;0.65;;;8.50;99.90;;;;;;5091466;28;20407;-62
2024/02/10 02:33:13;;;;;;;0.70;0.70;;;8.60;99.90;;;;;;5081775;28;20185;-62
2024/02/10 02:35:45;;;;;;;0.50;0.50;;;8.60;99.90;;;;;;5077658;28;20428;-62
2024/02/10 02:38:14;;;;;;;0.57;0.57;;;8.60;99.90;;;;;;5077524;28;20201;-61
2024/02/10 02:40:42;;;;;;;0.50;0.50;;;8.60;99.90;;;;;;5071137;28;20165;-61
2024/02/10 02:43:12;;;;;;;0.50;0.50;;;8.60;99.90;;;;;;5071221;28;20162;-62
2024/02/10 02:45:38;;;;;;;0.40;0.40;;;8.50;99.90;;;;;;5063205;28;20734;-61
2024/02/10 02:48:07;;;;;;;0.50;0.40;;;8.40;99.90;;;;;;5064976;28;20284;-62
2024/02/10 02:50:34;;;;;;;0.45;0.45;;;8.40;99.90;;;;;;5078869;28;20211;-61
2024/02/10 02:53:03;;;;;;;0.47;0.47;;;8.40;99.90;;;;;;5080151;28;20524;-62
2024/02/10 02:55:29;;;;;;;0.77;0.77;;;8.30;99.90;;;;;;5087772;28;20188;-61
2024/02/10 02:57:58;;;;;;;0.50;0.50;;;8.30;99.90;;;;;;5094688;28;20211;-61
2024/02/10 03:00:24;;;;;;;0.70;0.70;;;8.10;99.90;;;;;;5095129;28;20246;-62
2024/02/10 03:02:51;;;;;;;0.60;0.40;;;8.00;99.90;;;;;;5090305;28;20209;-62
2024/02/10 03:05:17;;;;;;;0.70;0.70;;;7.90;99.90;;;;;;5085943;28;20187;-61
2024/02/10 03:07:47;;;;;;;0.75;0.75;;;7.90;99.90;;;;;;5094849;28;20233;-62
2024/02/10 03:10:13;;;;;;;0.55;0.50;;;7.90;99.90;;;;;;5094877;28;20589;-61
2024/02/10 03:12:41;;;;;;;0.80;0.65;;;7.90;99.90;;;;;;5094797;28;20188;-61
2024/02/10 03:15:09;;;;;;;0.80;0.52;;;7.90;99.90;;;;;;5094683;28;20186;-61
2024/02/10 03:17:38;;;;;;;0.52;0.52;;;8.00;99.90;;;;;;5094207;28;20283;-62
2024/02/10 03:20:05;;;;;;;3.33;1.25;;;8.20;99.90;;;;;;5094688;28;20165;-62
2024/02/10 03:22:31;;;;;;;0.40;0.40;;;8.20;99.90;;;;;;5094612;28;20538;-61
2024/02/10 03:24:57;;;;;;;0.47;0.47;;;8.30;99.90;;;;;;5094675;28;20553;-62
2024/02/10 03:27:23;;;;;;;0.70;0.53;;;8.30;99.90;;;;;;5094270;28;20169;-62
2024/02/10 03:29:50;;;;;;;0.57;0.57;;;8.20;99.90;;;;;;5094389;28;20200;-62
2024/02/10 03:32:16;;;;;;;0.65;0.65;;;8.20;99.90;;;;;;5094445;28;20676;-61
2024/02/10 03:34:41;;;;;;;0.77;0.60;;;8.10;99.90;;;;;;5094417;28;20180;-61
2024/02/10 03:37:07;;;;;;;0.63;0.63;;;8.20;99.90;;;;;;5093938;28;20454;-61
2024/02/10 03:39:33;;;;;;;0.60;0.60;;;8.10;99.90;;;;;;5083365;22;20222;-62
2024/02/10 03:41:59;;;;;;;1.02;0.82;;;8.00;99.90;;;;;;5052925;28;20551;-61
2024/02/10 03:44:24;;;;;;;4.43;1.00;;;8.00;99.90;;;;;;5053789;28;20181;-61
2024/02/10 03:46:54;;;;;;;0.50;0.50;;;8.00;99.90;;;;;;5053572;28;20639;-61
2024/02/10 03:49:20;;;;;;;0.82;0.70;;;8.20;99.90;;;;;;5052412;28;20217;-61
2024/02/10 03:51:46;;;;;;;0.50;0.50;;;8.30;99.90;;;;;;5053592;28;20210;-61
2024/02/10 03:54:12;;;;;;;0.60;0.43;;;8.20;99.90;;;;;;5053570;28;20409;-61
2024/02/10 03:56:41;;;;;;;0.50;0.50;;;8.20;99.90;;;;;;5053414;28;20633;-61
2024/02/10 03:59:10;;;;;;;0.60;0.60;;;8.20;99.90;;;;;;5052495;28;20198;-61
2024/02/10 04:01:35;;;;;;;0.40;0.40;;;8.10;99.90;;;;;;5053492;28;20181;-61
2024/02/10 04:04:01;;;;;;;1.27;0.40;;;8.10;99.90;;;;;;5053451;28;20557;-61
2024/02/10 04:06:28;;;;;;;0.40;0.40;;;8.20;99.90;;;;;;5053082;28;20182;-61
2024/02/10 04:08:54;;;;;;;0.60;0.60;;;8.20;99.90;;;;;;5053465;28;20198;-61
2024/02/10 04:11:20;;;;;;;0.63;0.50;;;8.30;99.90;;;;;;5053382;28;20693;-61
2024/02/10 04:13:46;;;;;;;4.10;0.60;;;8.30;99.90;;;;;;5053288;28;20499;-61
2024/02/10 04:16:12;;;;;;;0.50;0.50;;;8.30;99.90;;;;;;5053242;28;20409;-60
2024/02/10 04:18:41;;;;;;;11.25;1.15;;;8.30;99.90;;;;;;5052999;28;20940;-61
2024/02/10 04:21:07;;;;;;;0.85;0.50;;;8.30;99.90;;;;;;5053703;28;20687;-61
2024/02/10 04:23:33;;;;;;;0.40;0.40;;;8.30;99.90;;;;;;5054170;28;20208;-61
2024/02/10 04:26:03;;;;;;;0.50;0.40;;;8.30;99.90;;;;;;5053022;28;20174;-61
2024/02/10 04:28:28;;;;;;;0.40;0.40;;;8.40;99.90;;;;;;5051598;28;20209;-61
2024/02/10 04:30:55;;;;;;;0.60;0.50;;;8.30;99.90;;;;;;5053132;28;20182;-61
2024/02/10 04:33:21;;;;;;;0.50;0.50;;;8.30;99.90;;;;;;5052812;28;20443;-61
2024/02/10 04:35:48;;;;;;;0.55;0.50;;;8.20;99.90;;;;;;5052888;28;20247;-61
2024/02/10 04:38:14;;;;;;;0.50;0.50;;;8.10;99.90;;;;;;5052386;28;20210;-61
2024/02/10 04:40:40;;;;;;;3.13;0.50;;;8.00;99.90;;;;;;5052958;28;20173;-61
2024/02/10 04:43:06;;;;;;;0.80;0.80;;;8.00;99.90;;;;;;5052888;28;20636;-61
2024/02/10 04:45:33;;;;;;;0.47;0.40;;;8.10;99.90;;;;;;5052703;28;20775;-61
2024/02/10 04:48:05;;;;;;;0.52;0.52;;;8.20;99.90;;;;;;5049274;28;20270;-61
2024/02/10 04:50:31;;;;;;;0.50;0.50;;;8.20;99.90;;;;;;5032795;28;20175;-61
2024/02/10 04:52:57;;;;;;;0.60;0.60;;;8.20;99.90;;;;;;5032591;28;20174;-61
2024/02/10 04:55:24;;;;;;;0.40;0.40;;;8.20;99.90;;;;;;5032651;28;20186;-61
2024/02/10 04:57:54;;;;;;;1.35;1.25;;;8.20;99.90;;;;;;5032199;28;20225;-61
2024/02/10 05:00:21;;;;;;;0.55;0.50;;;8.10;99.90;;;;;;5032428;28;20190;-61
2024/02/10 05:02:50;;;;;;;0.50;0.50;;;8.00;99.90;;;;;;5032423;28;20233;-61
2024/02/10 05:05:18;;;;;;;0.40;0.40;;;7.90;99.90;;;;;;5032363;28;20663;-61
2024/02/10 05:07:48;;;;;;;10.50;2.35;;;8.00;99.90;;;;;;5032056;28;20200;-61
2024/02/10 05:10:15;;;;;;;0.40;0.40;;;8.00;99.90;;;;;;5032054;28;20175;-61
2024/02/10 05:12:44;;;;;;;0.80;0.80;;;7.90;99.90;;;;;;5032306;28;20190;-61
2024/02/10 05:15:14;;;;;;;0.60;0.60;;;7.90;99.90;;;;;;5032164;28;20178;-61
2024/02/10 05:17:43;;;;;;;0.75;0.50;;;7.90;99.90;;;;;;5031701;28;20685;-60
2024/02/10 05:20:17;;;;;;;1.13;1.02;;;7.80;99.90;;;;;;5032233;28;20604;-61
2024/02/10 05:22:43;;;;;;;0.82;0.50;;;7.80;99.90;;;;;;5032118;28;20261;-61
2024/02/10 05:25:13;;;;;;;1.60;0.52;;;8.00;99.90;;;;;;5032065;28;20206;-61
2024/02/10 05:27:39;;;;;;;0.70;0.50;;;8.10;99.90;;;;;;5031686;28;20182;-61
2024/02/10 05:30:10;;;;;;;1.17;0.40;;;8.00;99.90;;;;;;5032133;28;20254;-61
2024/02/10 05:32:37;;;;;;;0.73;0.40;;;8.00;99.90;;;;;;5031917;28;20444;-61
2024/02/10 05:35:03;;;;;;;2.10;0.75;;;8.10;99.90;;;;;;5031857;28;20583;-61
2024/02/10 05:37:29;;;;;;;0.50;0.50;;;8.10;99.90;;;;;;5031512;28;20248;-62
2024/02/10 05:39:54;;;;;;;1.17;0.50;;;8.10;99.90;;;;;;5031614;28;20857;-62
2024/02/10 05:42:20;;;;;;;0.60;0.50;;;8.20;99.90;;;;;;5031845;28;20244;-62
2024/02/10 05:44:46;;;;;;;1.50;0.80;;;8.10;99.90;;;;;;5031378;28;20177;-64
2024/02/10 05:47:13;;;;;;;0.70;0.40;;;8.10;99.90;;;;;;5032010;28;20670;-61
2024/02/10 05:49:39;;;;;;;0.40;0.40;;;8.10;99.90;;;;;;5040074;28;20206;-61
2024/02/10 05:52:06;;;;;;;0.82;0.70;;;8.10;99.90;;;;;;5048788;28;20232;-61
2024/02/10 05:54:33;;;;;;;1.27;0.70;;;8.20;99.90;;;;;;5061815;28;20243;-62
2024/02/10 05:56:59;;;;;;;0.50;0.50;;;8.20;99.90;;;;;;5067699;28;20208;-62
2024/02/10 05:59:24;;;;;;;0.70;0.70;;;8.30;99.90;;;;;;5071501;28;20577;-62
2024/02/10 06:01:51;;;;;;;1.33;1.23;;;8.20;99.90;;;;;;5071475;28;20543;-61
2024/02/10 06:04:17;;;;;;;1.45;1.17;;;8.10;99.90;;;;;;5071112;28;20170;-62
2024/02/10 06:06:45;;;;;;;2.10;0.80;;;8.00;99.90;;;;;;5062958;28;20265;-62
2024/02/10 06:09:10;;;;;;;1.30;1.20;;;8.00;99.90;;;;;;5069136;28;20275;-62
2024/02/10 06:11:36;;;;;;;2.03;1.90;;;8.10;99.90;;;;;;5071296;28;20298;-62
2024/02/10 06:14:04;;;;;;;8.23;1.80;;;8.00;99.90;;;;;;5071120;28;20185;-62
2024/02/10 06:16:30;;;;;;;5.45;2.40;;;8.00;99.90;;;;;;5070685;28;20178;-62
2024/02/10 06:18:58;;;;;;;1.00;1.00;;;8.00;99.90;;;;;;5050601;28;20208;-60
2024/02/10 06:21:23;;;;;;;1.15;0.90;;;8.10;99.90;;;;;;5064051;28;20166;-59
2024/02/10 06:23:50;;;;;;;0.70;0.70;;;8.20;99.90;;;;;;5070479;28;20180;-62
2024/02/10 06:26:16;;;;;;;0.77;0.70;;;8.30;99.90;;;;;;5073034;28;20169;-63
2024/02/10 06:28:42;;;;;;;1.05;0.68;;;8.40;99.90;;;;;;5062423;28;20620;-64
2024/02/10 06:31:14;;;;;;;1.00;0.90;;;8.30;99.90;;;;;;5072692;28;20177;-64
2024/02/10 06:33:40;;;;;;;1.20;0.80;;;8.20;99.90;;;;;;5075184;28;20181;-64
2024/02/10 06:36:05;;;;;;;1.43;0.77;;;8.00;99.90;;;;;;5075069;28;20185;-61
2024/02/10 06:38:34;;;;;;;0.73;0.70;;;8.00;99.90;;;;;;5074797;28;20220;-64
2024/02/10 06:41:03;;;;;;;2.33;0.93;;;8.10;99.90;;;;;;5075468;28;20173;-64
2024/02/10 06:43:31;;;;;;;0.90;0.88;;;8.20;99.90;;;;;;5060968;28;20186;-65
2024/02/10 06:46:00;;;;;;;2.15;1.20;;;8.20;99.90;;;;;;5063278;28;20170;-64
2024/02/10 06:48:26;;;;;;;0.70;0.70;;;8.20;99.90;;;;;;5044404;28;20616;-62
2024/02/10 06:50:54;;;;;;;0.85;0.80;;;8.30;99.90;;;;;;5057734;28;20545;-66
2024/02/10 06:53:20;;;;;;;0.50;0.50;;;8.30;99.90;;;;;;5055084;28;20178;-66
2024/02/10 06:55:45;;;;;;;1.27;1.02;;;8.20;99.90;;;;;;5062887;28;20643;-63
2024/02/10 06:58:11;;;;;;;0.53;0.53;;;8.10;99.90;;;;;;5062358;28;20221;-63
2024/02/10 07:00:40;;;;;;;1.27;1.17;;;8.20;99.90;;;;;;5062683;28;20663;-63
2024/02/10 07:03:06;;;;;;;0.50;0.50;;;8.20;99.90;;;;;;5073446;28;20169;-63
2024/02/10 07:05:37;;;;;;;0.63;0.40;;;8.30;99.90;;;;;;5074518;28;20639;-62
2024/02/10 07:08:05;;;;;;;2.05;1.10;;;8.30;99.90;;;;;;5075317;28;20192;-59
2024/02/10 07:10:31;;;;;;;3.60;1.08;;;8.40;99.90;;;;;;5074748;28;20177;-60
2024/02/10 07:12:57;;;;;;;3.27;0.60;;;8.80;99.90;;;;;;5074824;28;20177;-59
2024/02/10 07:15:24;;;;;;;1.10;0.80;;;9.30;99.90;;;;;;5068520;28;20178;-61
2024/02/10 07:17:52;;;;;;;0.40;0.40;;;9.80;99.90;;;;;;5059782;28;20542;-60
2024/02/10 07:20:20;;;;;;;2.00;0.60;;;10.20;99.90;;;;;;5064637;28;20193;-59
2024/02/10 07:22:57;;;;;;;0.55;0.55;;;10.40;99.90;;;;;;5062736;28;20499;-65
2024/02/10 07:25:27;;;;;;;1.15;1.00;;;10.60;99.90;;;;;;5073737;28;20178;-63
2024/02/10 07:27:53;;;;;;;0.70;0.70;;;10.40;99.90;;;;;;5073810;28;20627;-63
2024/02/10 07:30:19;;;;;;;0.57;0.57;;;10.10;99.90;;;;;;5073945;28;20550;-63
2024/02/10 07:32:49;;;;;;;1.10;0.43;;;10.00;99.90;;;;;;5073913;28;20210;-63
2024/02/10 07:35:22;;;;;;;1.25;0.80;;;9.80;99.90;;;;;;5068902;28;20236;-63
2024/02/10 07:37:48;;;;;;;1.55;0.55;;;9.60;99.90;;;;;;5065037;28;20342;-63
2024/02/10 07:40:14;;;;;;;0.60;0.60;;;9.40;99.90;;;;;;5074029;28;20178;-63
2024/02/10 07:42:39;;;;;;;1.60;1.50;;;9.30;99.90;;;;;;5073870;28;20165;-63
2024/02/10 07:45:06;;;;;;;1.87;1.33;;;9.20;99.90;;;;;;5073803;28;20166;-63
2024/02/10 07:47:32;;;;;;;0.98;0.88;;;9.20;99.90;;;;;;5066774;28;20945;-62
2024/02/10 07:50:00;;;;;;;1.50;1.00;;;9.20;99.90;;;;;;5061795;28;20206;-63
2024/02/10 07:52:28;;;;;;;1.20;1.10;;;9.10;99.90;;;;;;5066310;28;20213;-62
2024/02/10 07:54:56;;;;;;;4.93;1.67;;;8.90;99.90;;;;;;5065283;28;20204;-63
2024/02/10 07:57:22;;;;;;;0.75;0.75;;;8.80;99.90;;;;;;5056733;28;20202;-62
2024/02/10 07:59:54;;;;;;;2.35;0.80;;;8.80;99.90;;;;;;5053752;28;20685;-64
2024/02/10 08:02:23;;;;;;;0.80;0.80;;;8.90;99.90;;;;;;5061610;28;20189;-62
2024/02/10 08:04:51;;;;;;;1.38;1.17;;;8.90;99.90;;;;;;5068256;28;20181;-63
2024/02/10 08:07:32;;;;;;;0.75;0.75;;;9.00;99.90;;;;;;5073429;28;20169;-65
2024/02/10 08:09:59;;;;;;;1.17;1.00;;;9.10;99.90;;;;;;5073340;28;20243;-63
2024/02/10 08:12:26;;;;;;;1.27;1.10;;;9.10;99.90;;;;;;5073375;28;20166;-63
2024/02/10 08:14:56;;;;;;;5.43;3.35;;;9.10;99.90;;;;;;5073508;28;20182;-63
2024/02/10 08:17:31;;;;;;;4.50;3.35;;;9.00;99.90;;;;;;5069941;28;20242;-63
2024/02/10 08:19:57;;;;;;;3.83;3.17;;;9.00;99.90;;;;;;5069301;28;20193;-63
2024/02/10 08:22:23;;;;;;;5.30;3.35;;;9.00;99.90;;;;;;5073371;28;20176;-65
2024/02/10 08:24:51;;;;;;;2.30;2.00;;;9.00;99.90;;;;;;5073712;28;20169;-64
2024/02/10 08:27:18;;;;;;;1.92;1.80;;;9.00;99.90;;;;;;5072784;28;20412;-63
2024/02/10 08:29:45;;;;;;;2.50;2.38;;;9.10;99.90;;;;;;5073117;28;20189;-63
2024/02/10 08:32:13;;;;;;;1.90;1.53;;;9.20;99.90;;;;;;5074394;28;20347;-63
2024/02/10 08:34:42;;;;;;;1.08;1.05;;;9.30;99.90;;;;;;5073108;28;20411;-63
2024/02/10 08:37:12;;;;;;;1.23;1.00;;;9.40;99.90;;;;;;5072607;28;20752;-63
2024/02/10 08:39:45;;;;;;;0.65;0.60;;;9.40;99.90;;;;;;5072766;28;20220;-63
2024/02/10 08:42:15;;;;;;;0.40;0.40;;;9.40;99.90;;;;;;5072868;28;20165;-63
2024/02/10 08:44:44;;;;;;;1.13;1.10;;;9.40;99.90;;;;;;5072303;28;20663;-64
2024/02/10 08:47:10;;;;;;;0.77;0.77;;;9.50;99.90;;;;;;5064867;28;20511;-64
2024/02/10 08:49:37;;;;;;;0.60;0.60;;;9.50;99.90;;;;;;5064019;28;20539;-64
2024/02/10 08:52:05;;;;;;;1.90;1.80;;;9.50;99.90;;;;;;5064097;28;20170;-64
2024/02/10 08:54:31;;;;;;;1.45;1.20;;;9.60;99.90;;;;;;5070168;28;20422;-63
2024/02/10 08:57:00;;;;;;;0.70;0.60;;;9.70;99.90;;;;;;5063665;28;20198;-63
2024/02/10 08:59:32;;;;;;;0.60;0.60;;;9.80;99.90;;;;;;5072249;28;20192;-63
2024/02/10 09:02:01;;;;;;;0.40;0.40;;;9.90;99.90;;;;;;5072040;28;20176;-63
2024/02/10 09:04:30;;;;;;;3.08;0.68;;;9.90;99.90;;;;;;5054219;28;20186;-63
2024/02/10 09:07:00;;;;;;;0.40;0.40;;;9.90;99.90;;;;;;5044993;28;20190;-64
2024/02/10 09:09:29;;;;;;;0.40;0.40;;;10.00;99.90;;;;;;5052058;28;20432;-65
2024/02/10 09:11:55;;;;;;;0.63;0.47;;;10.00;99.90;;;;;;5052204;28;20189;-66
2024/02/10 09:14:21;;;;;;;1.23;0.70;;;10.00;99.90;;;;;;5051975;28;20499;-65
2024/02/10 09:16:47;;;;;;;0.77;0.50;;;10.00;99.90;;;;;;5059780;28;20179;-64
2024/02/10 09:19:15;;;;;;;0.50;0.50;;;9.90;99.90;;;;;;5069698;28;20192;-63
2024/02/10 09:22:03;;;;;;;0.40;0.40;;;10.00;99.90;;;;;;5071976;28;20408;-63
2024/02/10 09:24:26;;;;;;;0.40;0.40;;;9.90;99.90;;;;;;5071518;28;20181;-64
2024/02/10 09:26:53;;;;;;;1.20;0.83;;;10.00;99.90;;;;;;5071487;28;20598;-63
2024/02/10 09:29:19;;;;;;;0.60;0.60;;;10.00;99.90;;;;;;5071690;28;20674;-63
2024/02/10 09:31:48;;;;;;;0.93;0.50;;;9.90;99.90;;;;;;5071580;28;20201;-64
2024/02/10 09:34:15;;;;;;;0.50;0.50;;;9.90;99.90;;;;;;5071782;28;20419;-68
2024/02/10 09:36:43;;;;;;;1.65;1.20;;;10.00;99.90;;;;;;5071551;28;20173;-64
2024/02/10 09:39:09;;;;;;;1.58;1.48;;;9.90;99.90;;;;;;5075942;23;20221;-66
2024/02/10 09:41:35;;;;;;;1.10;1.00;;;9.70;99.90;;;;;;5071716;28;20169;-63
2024/02/10 09:44:03;;;;;;;2.50;1.20;;;9.70;99.90;;;;;;5071640;28;20295;-64
2024/02/10 09:46:35;;;;;;;3.30;1.27;;;9.80;99.90;;;;;;5071105;28;20687;-63
2024/02/10 09:49:07;;;;;;;1.55;0.85;;;9.90;99.90;;;;;;5076022;28;20450;-64
2024/02/10 09:51:37;;;;;;;0.50;0.50;;;10.00;99.90;;;;;;5074304;28;20177;-64
2024/02/10 09:54:03;;;;;;;0.93;0.63;;;10.10;99.90;;;;;;5083706;28;20891;-64
2024/02/10 09:56:30;;;;;;;0.60;0.60;;;10.10;99.90;;;;;;5073915;28;20306;-66
2024/02/10 09:58:56;;;;;;;1.85;0.60;;;10.10;99.90;;;;;;5083081;28;20192;-64
2024/02/10 10:01:32;;;;;;;0.70;0.70;;;10.10;99.90;;;;;;5091550;28;20185;-64
2024/02/10 10:03:59;;;;;;;0.50;0.50;;;10.10;99.90;;;;;;5090424;28;20172;-64
2024/02/10 10:06:26;;;;;;;0.70;0.70;;;9.90;99.90;;;;;;5091329;28;20165;-63
2024/02/10 10:08:53;;;;;;;0.60;0.60;;;9.80;99.90;;;;;;5091775;28;20877;-63
2024/02/10 10:11:20;;;;;;;0.80;0.50;;;9.90;99.90;;;;;;5091522;28;20407;-63
2024/02/10 10:13:46;;;;;;;0.65;0.65;;;9.70;99.90;;;;;;5082998;28;20510;-63
2024/02/10 10:16:12;;;;;;;0.60;0.60;;;9.50;99.90;;;;;;5068488;28;20257;-63
2024/02/10 10:18:38;;;;;;;0.53;0.53;;;9.70;99.90;;;;;;5065622;28;20493;-64
2024/02/10 10:21:10;;;;;;;0.47;0.47;;;9.60;99.90;;;;;;5079623;28;20195;-63
2024/02/10 10:23:36;;;;;;;0.73;0.73;;;9.50;99.90;;;;;;5062064;28;20177;-65
2024/02/10 10:26:03;;;;;;;0.70;0.70;;;9.70;99.90;;;;;;5070758;28;20226;-62
2024/02/10 10:28:32;;;;;;;0.97;0.50;;;9.80;99.90;;;;;;5070078;28;20251;-62
2024/02/10 10:30:59;;;;;;;0.70;0.50;;;9.90;99.90;;;;;;5070858;28;20470;-62
2024/02/10 10:33:26;;;;;;;0.60;0.57;;;9.90;99.90;;;;;;5079491;28;20793;-64
2024/02/10 10:35:54;;;;;;;2.00;0.40;;;10.00;99.90;;;;;;5084777;28;20446;-64
2024/02/10 10:38:21;;;;;;;1.73;0.50;;;10.10;99.90;;;;;;5089719;28;20490;-64
2024/02/10 10:40:52;;;;;;;0.97;0.97;;;10.30;99.90;;;;;;5091365;28;20173;-64
2024/02/10 10:43:22;;;;;;;0.50;0.50;;;10.40;99.90;;;;;;5091377;28;20827;-64
2024/02/10 10:45:49;;;;;;;0.60;0.60;;;10.30;99.90;;;;;;5091617;28;20395;-65
2024/02/10 10:48:14;;;;;;;2.47;0.87;;;10.40;99.90;;;;;;5090891;28;20495;-65
2024/02/10 10:50:41;;;;;;;0.50;0.50;;;10.50;99.90;;;;;;5091250;28;20469;-65
2024/02/10 10:53:11;;;;;;;0.60;0.60;;;10.50;99.90;;;;;;5091201;28;20173;-65
2024/02/10 10:55:43;;;;;;;1.67;0.90;;;10.30;99.90;;;;;;5091086;28;20415;-65
2024/02/10 10:58:19;;;;;;;1.60;0.60;;;10.40;99.90;;;;;;5091053;28;20208;-65
2024/02/10 11:00:46;;;;;;;1.50;0.70;;;10.50;99.90;;;;;;5091454;28;20398;-65
2024/02/10 11:03:16;;;;;;;3.43;0.50;;;10.60;99.90;;;;;;5091316;28;20410;-65
2024/02/10 11:05:43;;;;;;;0.70;0.70;;;10.80;99.90;;;;;;5091220;28;20403;-65
2024/02/10 11:08:13;;;;;;;0.50;0.50;;;10.90;99.90;;;;;;5092395;28;20179;-65
2024/02/10 11:10:48;;;;;;;1.03;0.60;;;11.00;99.90;;;;;;5094960;28;20447;-68
2024/02/10 11:13:21;;;;;;;1.00;0.60;;;11.10;99.90;;;;;;5095269;28;20405;-66
2024/02/10 11:16:03;;;;;;;0.97;0.40;;;11.00;99.90;;;;;;5094877;28;20407;-66
2024/02/10 11:18:31;;;;;;;0.50;0.50;;;11.00;99.90;;;;;;5095922;28;20554;-65
2024/02/10 11:21:25;;;;;;;0.77;0.77;;;11.10;99.90;;;;;;5095215;28;20536;-66
2024/02/10 11:24:05;;;;;;;1.07;0.57;;;11.10;99.90;;;;;;5095273;28;20493;-65
2024/02/10 11:26:33;;;;;;;0.40;0.40;;;10.70;99.90;;;;;;5094577;28;20915;-66
2024/02/10 11:29:00;;;;;;;0.50;0.50;;;10.60;99.90;;;;;;5093419;28;20517;-66
2024/02/10 11:31:28;;;;;;;0.40;0.40;;;10.70;99.90;;;;;;5094645;28;20414;-66
2024/02/10 11:34:01;;;;;;;0.50;0.50;;;10.70;99.90;;;;;;5094582;28;20410;-65
2024/02/10 11:36:28;;;;;;;0.40;0.40;;;10.70;99.90;;;;;;5094375;28;20756;-65
2024/02/10 11:38:54;;;;;;;0.67;0.50;;;10.70;99.90;;;;;;5092874;28;20462;-66
2024/02/10 11:41:20;;;;;;;0.40;0.40;;;10.80;99.90;;;;;;5094211;28;20824;-65
2024/02/10 11:43:48;;;;;;;0.97;0.60;;;10.90;99.90;;;;;;5094465;28;20431;-65
2024/02/10 11:46:15;;;;;;;0.40;0.40;;;11.00;99.90;;;;;;5093258;28;20399;-65
2024/02/10 11:48:41;;;;;;;0.87;0.50;;;11.40;99.90;;;;;;5080916;28;20462;-65
2024/02/10 11:51:06;;;;;;;0.57;0.50;;;11.80;99.90;;;;;;5081567;28;20408;-65
2024/02/10 11:53:32;;;;;;;1.00;0.90;;;12.00;98.90;;;;;;5079931;28;20659;-65
2024/02/10 11:55:59;;;;;;;0.50;0.40;;;12.20;97.20;;;;;;5064786;28;20209;-65
2024/02/10 11:58:29;;;;;;;0.40;0.40;;;12.10;99.00;;;;;;5058814;28;20263;-65
2024/02/10 12:00:55;;;;;;;1.33;0.93;;;12.10;98.30;;;;;;5065088;28;20416;-65
2024/02/10 12:03:24;;;;;;;0.80;0.70;;;12.10;96.00;;;;;;5072251;28;20981;-65
2024/02/10 12:05:49;;;;;;;1.20;1.00;;;12.10;96.70;;;;;;5069422;28;20182;-65
2024/02/10 12:08:15;;;;;;;0.53;0.53;;;11.90;96.10;;;;;;5072709;28;20807;-65
2024/02/10 12:10:42;;;;;;;0.40;0.40;;;12.00;96.30;;;;;;5074146;28;20184;-65
2024/02/10 12:13:11;;;;;;;0.60;0.60;;;11.80;95.80;;;;;;5082513;28;20257;-65
2024/02/10 12:15:40;;;;;;;0.50;0.50;;;11.80;96.50;;;;;;5094428;28;20481;-66
2024/02/10 12:18:07;;;;;;;0.40;0.40;;;12.00;97.80;;;;;;5094184;28;20443;-65
2024/02/10 12:20:37;;;;;;;0.50;0.50;;;12.10;97.10;;;;;;5091385;28;20426;-65
2024/02/10 12:23:03;;;;;;;1.37;0.70;;;12.10;96.80;;;;;;5091183;28;20418;-65
2024/02/10 12:25:29;;;;;;;1.23;1.20;;;12.20;96.10;;;;;;5078850;28;20526;-63
2024/02/10 12:27:57;;;;;;;0.60;0.60;;;12.20;95.20;;;;;;5081513;28;20494;-63
2024/02/10 12:30:22;;;;;;;0.50;0.50;;;12.20;95.60;;;;;;5084627;28;20184;-63
2024/02/10 12:32:51;;;;;;;0.50;0.50;;;12.00;96.10;;;;;;5093219;28;20410;-64
2024/02/10 12:35:17;;;;;;;0.70;0.70;;;11.70;97.00;;;;;;5087997;28;20177;-65
2024/02/10 12:37:46;;;;;;;1.73;0.67;;;11.70;97.20;;;;;;5085319;28;20911;-64
2024/02/10 12:40:13;;;;;;;0.70;0.70;;;11.80;97.50;;;;;;5092647;28;20483;-64
2024/02/10 12:42:42;;;;;;;0.67;0.60;;;11.90;96.40;;;;;;5094845;28;20901;-63
2024/02/10 12:45:13;;;;;;;0.80;0.80;;;12.10;96.30;;;;;;5093021;28;20410;-63
2024/02/10 12:47:42;;;;;;;0.90;0.80;;;12.30;96.00;;;;;;5092756;28;20510;-63
2024/02/10 12:50:08;;;;;;;0.50;0.50;;;12.40;95.80;;;;;;5092643;28;20499;-64
2024/02/10 12:52:40;;;;;;;1.40;0.57;;;12.50;95.00;;;;;;5092981;28;20427;-63
2024/02/10 12:55:09;;;;;;;0.63;0.63;;;12.50;95.50;;;;;;5092821;28;20784;-63
2024/02/10 12:57:38;;;;;;;0.40;0.40;;;12.40;95.00;;;;;;5092364;28;20474;-63